Capricorn — PDAY — position and weather

sailwx.info

Track history (hours):
 
Tides and Currents Weather Stations Pressure Air Temp Water Temp Dewpoint Dewpoint Depression Visibility Wind Speed Wind Dir Waves Ship Positions

Capricorn

Last reported at 2017-Dec-11 16:58 UTC. Time now 2017-Dec-12 03:00 UTC.
Position N 59°07' E 009°37'.

Length 118 m; beam 15 m.

Type: Cargo ship. MMSI: 244050844.

Date/timePositionNaut miles runAvg speedWind from/ knotsBaromVisibWave heightAir tempDewpointWater temp
2017-Dec-11 16:58N 59°07' E 009°37'0 0.0
2017-Dec-11 16:28N 59°07' E 009°37'0 0.0
2017-Dec-11 15:58N 59°07' E 009°37'0 0.0
2017-Dec-11 15:28N 59°07' E 009°37'0 0.0
2017-Dec-11 14:58N 59°07' E 009°37'0 0.0
2017-Dec-11 14:28N 59°07' E 009°37'0 0.0
2017-Dec-11 13:58N 59°07' E 009°37'0 0.0
2017-Dec-11 13:28N 59°07' E 009°37'0 0.0
2017-Dec-11 12:58N 59°07' E 009°37'0 0.0
2017-Dec-11 12:28N 59°07' E 009°37'0 0.0
2017-Dec-11 11:58N 59°07' E 009°37'0 0.0
2017-Dec-11 11:28N 59°07' E 009°37'0 0.0
2017-Dec-11 10:58N 59°07' E 009°37'0 0.0
2017-Dec-11 10:28N 59°07' E 009°37'0 0.0
2017-Dec-11 09:58N 59°07' E 009°37'0 0.0
2017-Dec-11 09:28N 59°07' E 009°37'0 0.0
2017-Dec-11 08:58N 59°07' E 009°37'0 0.0
2017-Dec-11 08:28N 59°07' E 009°37'0 0.0
2017-Dec-11 07:58N 59°07' E 009°37'0 0.0
2017-Dec-11 07:28N 59°07' E 009°37'0 0.0
2017-Dec-11 06:58N 59°07' E 009°37'0 0.0
2017-Dec-11 06:28N 59°07' E 009°37'0 0.0
2017-Dec-11 05:58N 59°07' E 009°37'0 0.0
2017-Dec-11 05:28N 59°07' E 009°37'0 0.0
2017-Dec-11 04:58N 59°07' E 009°37'0 0.0
2017-Dec-11 04:28N 59°07' E 009°37'0 0.0
2017-Dec-11 03:58N 59°07' E 009°37'0 0.0
2017-Dec-11 03:28N 59°07' E 009°37'0 0.0
2017-Dec-11 02:58N 59°07' E 009°37'0 0.0
2017-Dec-11 02:28N 59°07' E 009°37'0 0.0
2017-Dec-11 01:58N 59°07' E 009°37'0 0.0
2017-Dec-11 01:28N 59°07' E 009°37'0 0.0
2017-Dec-11 00:58N 59°07' E 009°37'0 0.0
2017-Dec-11 00:28N 59°07' E 009°37'0 0.0
2017-Dec-10 23:55N 59°07' E 009°37'0 0.0
2017-Dec-10 23:28N 59°07' E 009°37'0 0.0
2017-Dec-10 22:58N 59°07' E 009°37'0 0.0
2017-Dec-10 22:28N 59°07' E 009°37'0 0.0
2017-Dec-10 21:58N 59°07' E 009°37'0 0.0
2017-Dec-10 21:28N 59°07' E 009°37'0 0.0
2017-Dec-10 20:58N 59°07' E 009°37'0 0.0
2017-Dec-10 20:28N 59°07' E 009°37'0 0.0
2017-Dec-10 19:58N 59°07' E 009°37'0 0.0
2017-Dec-10 19:28N 59°07' E 009°37'0 0.0
2017-Dec-10 18:58N 59°07' E 009°37'0 0.0
2017-Dec-10 18:28N 59°07' E 009°37'0 0.0
2017-Dec-10 17:58N 59°07' E 009°37'0 0.0
2017-Dec-10 17:30N 59°07' E 009°37'2 3.8
2017-Dec-10 17:00N 59°05' E 009°38'5 9.4
2017-Dec-10 16:30N 59°02' E 009°44'510.7
2017-Dec-10 16:00N 58°57' E 009°48'611.6
2017-Dec-10 15:30N 58°51' E 009°47'611.9
2017-Dec-10 15:00N 58°45' E 009°46'612.4
2017-Dec-10 14:30N 58°39' E 009°45'19312.3
2017-Dec-09 22:49N 55°51' E 006°50'411.5
2017-Dec-09 22:30N 55°48' E 006°47'611.6
2017-Dec-09 21:59N 55°43' E 006°41'511.3
2017-Dec-09 21:30N 55°38' E 006°36'611.3
2017-Dec-09 21:00N 55°33' E 006°31'611.3
2017-Dec-09 20:29N 55°28' E 006°26'511.1
2017-Dec-09 20:00N 55°23' E 006°22'611.4
2017-Dec-09 19:30N 55°18' E 006°17'611.2
2017-Dec-09 18:59N 55°13' E 006°13'611.2
2017-Dec-09 18:29N 55°08' E 006°08'610.9
2017-Dec-09 17:59N 55°04' E 006°03'510.9
2017-Dec-09 17:30N 54°59' E 005°59'510.9
2017-Dec-09 17:00N 54°54' E 005°54'510.7
2017-Dec-09 16:30N 54°50' E 005°49'510.5
2017-Dec-09 15:59N 54°45' E 005°45'510.2
2017-Dec-09 15:30N 54°41' E 005°41'510.0
2017-Dec-09 15:00N 54°36' E 005°37'510.3
2017-Dec-09 14:30N 54°32' E 005°32'510.2
2017-Dec-09 13:59N 54°27' E 005°28'5 9.9
2017-Dec-09 13:29N 54°23' E 005°24'5 9.9
2017-Dec-09 13:00N 54°19' E 005°20'5 9.9
2017-Dec-09 12:29N 54°14' E 005°16'5 9.8
2017-Dec-09 12:00N 54°10' E 005°12'36 9.1
2017-Dec-09 08:03N 53°36' E 004°49'1 8.3
2017-Dec-09 07:58N 53°36' E 004°49'47 8.1
2017-Dec-09 02:08N 52°53' E 004°17'3 7.0
2017-Dec-09 01:39N 52°50' E 004°16'2 6.9
2017-Dec-09 01:19N 52°47' E 004°14'2 5.0
2017-Dec-09 00:58N 52°46' E 004°15'3 5.9
2017-Dec-09 00:28N 52°43' E 004°16'3 5.8
2017-Dec-09 00:00N 52°40' E 004°18'3 6.1
2017-Dec-08 23:30N 52°37' E 004°19'3 5.7
2017-Dec-08 23:00N 52°35' E 004°22'3 5.7
2017-Dec-08 22:30N 52°33' E 004°25'3 5.0
2017-Dec-08 22:00N 52°31' E 004°27'3 5.7
2017-Dec-08 21:31N 52°29' E 004°30'4 7.6
2017-Dec-08 21:00N 52°28' E 004°36'0 0.0
2017-Dec-08 20:30N 52°28' E 004°36'2 4.1
2017-Dec-08 20:00N 52°28' E 004°40'5 9.3
2017-Dec-08 19:31N 52°26' E 004°47'1 2.5
2017-Dec-08 18:57N 52°25' E 004°49'0 0.0
2017-Dec-08 18:27N 52°25' E 004°49'0 0.0
2017-Dec-08 17:57N 52°25' E 004°49'0 0.0
2017-Dec-08 17:27N 52°25' E 004°49'0 0.0
2017-Dec-08 16:51N 52°25' E 004°49'0 0.0
2017-Dec-08 16:27N 52°25' E 004°49'0 0.0
2017-Dec-08 15:57N 52°25' E 004°49'0 0.0
2017-Dec-08 15:27N 52°25' E 004°49'0 0.0
2017-Dec-08 14:57N 52°25' E 004°49'0 0.0
2017-Dec-08 14:27N 52°25' E 004°49'0 0.0
2017-Dec-08 13:57N 52°25' E 004°49'0 0.0
2017-Dec-08 13:27N 52°25' E 004°49'0 0.0
2017-Dec-08 12:57N 52°25' E 004°49'0 0.0
2017-Dec-08 12:21N 52°25' E 004°49'0 0.0
2017-Dec-08 11:57N 52°25' E 004°49'0 0.0
2017-Dec-08 11:27N 52°25' E 004°49'0 0.0
2017-Dec-08 10:57N 52°25' E 004°49'0 0.0
2017-Dec-08 10:27N 52°25' E 004°49'0 0.0
2017-Dec-08 09:57N 52°25' E 004°49'0 0.0
2017-Dec-08 09:27N 52°25' E 004°49'0 0.0
2017-Dec-08 08:57N 52°25' E 004°49'0 0.0
2017-Dec-08 08:27N 52°25' E 004°49'0 0.0
2017-Dec-08 07:57N 52°25' E 004°49'0 0.0
2017-Dec-08 07:27N 52°25' E 004°49'0 0.0
2017-Dec-08 06:57N 52°25' E 004°49'0 0.0
2017-Dec-08 06:27N 52°25' E 004°49'0 0.0
2017-Dec-08 05:51N 52°25' E 004°49'0 0.0
2017-Dec-08 05:21N 52°25' E 004°49'0 0.0
2017-Dec-08 04:57N 52°25' E 004°49'0 0.0
2017-Dec-08 04:27N 52°25' E 004°49'0 0.0
2017-Dec-08 03:57N 52°25' E 004°49'0 0.0
2017-Dec-08 03:27N 52°25' E 004°49'0 0.0
2017-Dec-08 02:57N 52°25' E 004°49'0 0.0
2017-Dec-08 02:27N 52°25' E 004°49'0 0.0
2017-Dec-08 01:57N 52°25' E 004°49'0 0.0
2017-Dec-08 01:27N 52°25' E 004°49'0 0.0
2017-Dec-08 00:57N 52°25' E 004°49'0 0.0
2017-Dec-08 00:27N 52°25' E 004°49'0 0.0
2017-Dec-07 23:57N 52°25' E 004°49'0 0.0
2017-Dec-07 23:27N 52°25' E 004°49'0 0.0
2017-Dec-07 22:57N 52°25' E 004°49'0 0.0
2017-Dec-07 22:27N 52°25' E 004°49'0 0.0
2017-Dec-07 21:57N 52°25' E 004°49'0 0.0
2017-Dec-07 21:27N 52°25' E 004°49'0 0.0
2017-Dec-07 20:57N 52°25' E 004°49'0 0.0
2017-Dec-07 20:27N 52°25' E 004°49'0 0.0
2017-Dec-07 19:57N 52°25' E 004°49'0 0.0
2017-Dec-07 19:27N 52°25' E 004°49'0 0.0
2017-Dec-07 18:51N 52°25' E 004°49'0 0.0
2017-Dec-07 18:15N 52°25' E 004°49'0 0.0
2017-Dec-07 17:45N 52°25' E 004°49'0 0.0
2017-Dec-07 17:27N 52°25' E 004°49'0 0.0
2017-Dec-07 16:57N 52°25' E 004°49'0 0.0
2017-Dec-07 16:27N 52°25' E 004°49'0 0.0
2017-Dec-07 15:51N 52°25' E 004°49'0 0.0
2017-Dec-07 15:27N 52°25' E 004°49'0 0.0
2017-Dec-07 14:57N 52°25' E 004°49'0 0.0
2017-Dec-07 14:27N 52°25' E 004°49'0 0.0
2017-Dec-07 13:57N 52°25' E 004°49'0 0.0
2017-Dec-07 13:27N 52°25' E 004°49'0 0.0
2017-Dec-07 12:57N 52°25' E 004°49'0 0.0
2017-Dec-07 12:27N 52°25' E 004°49'0 0.0
2017-Dec-07 11:58N 52°25' E 004°49'1 1.7
2017-Dec-07 11:30N 52°25' E 004°48'4 8.9
2017-Dec-07 11:00N 52°27' E 004°41'3 6.2
2017-Dec-07 10:31N 52°28' E 004°36'2 3.3
2017-Dec-07 10:01N 52°28' E 004°33'510.4
2017-Dec-07 09:30N 52°28' E 004°25'510.7
2017-Dec-07 09:00N 52°29' E 004°16'510.0
2017-Dec-07 08:30N 52°29' E 004°08'611.0
2017-Dec-07 08:00N 52°27' E 003°59'7112.4
2017-Dec-07 02:16N 51°41' E 002°32'513.0
2017-Dec-07 01:51N 51°36' E 002°26'612.7
2017-Dec-07 01:24N 51°32' E 002°20'512.2
2017-Dec-07 00:59N 51°28' E 002°16'612.1
2017-Dec-07 00:30N 51°23' E 002°11'611.4
2017-Dec-07 00:00N 51°18' E 002°07'510.4
2017-Dec-06 23:30N 51°14' E 002°02'5 9.9
2017-Dec-06 23:00N 51°11' E 001°56'5 9.4
2017-Dec-06 22:30N 51°08' E 001°50'5 9.2
2017-Dec-06 22:00N 51°05' E 001°44'4 8.8
2017-Dec-06 21:30N 51°02' E 001°39'4 8.7
2017-Dec-06 21:00N 50°59' E 001°35'  
2017-Dec-04 10:22N 43°32' W 001°30'0 0.0
2017-Dec-04 09:58N 43°32' W 001°30'0 0.0
2017-Dec-04 09:28N 43°32' W 001°30'0 0.0
2017-Dec-04 08:58N 43°32' W 001°30'0 0.0
2017-Dec-04 08:28N 43°32' W 001°30'0 0.0
2017-Dec-04 07:58N 43°32' W 001°30'0 0.0
2017-Dec-04 07:28N 43°32' W 001°30'0 0.0
2017-Dec-04 06:58N 43°32' W 001°30'0 0.0
2017-Dec-04 06:28N 43°32' W 001°30'0 0.0
2017-Dec-04 05:58N 43°32' W 001°30'0 0.0
2017-Dec-04 05:28N 43°32' W 001°30'0 0.0
2017-Dec-04 04:58N 43°32' W 001°30'0 0.0
2017-Dec-04 04:28N 43°32' W 001°30'0 0.0
2017-Dec-04 03:58N 43°32' W 001°30'0 0.0
2017-Dec-04 03:28N 43°32' W 001°30'0 0.0
2017-Dec-04 02:58N 43°32' W 001°30'0 0.0
2017-Dec-04 02:28N 43°32' W 001°30'0 0.0
2017-Dec-04 01:58N 43°32' W 001°30'0 0.0
2017-Dec-04 01:28N 43°32' W 001°30'0 0.0
2017-Dec-04 00:58N 43°32' W 001°30'0 0.0
2017-Dec-04 00:28N 43°32' W 001°30'0 0.0
2017-Dec-03 23:58N 43°32' W 001°30'0 0.0
2017-Dec-03 23:28N 43°32' W 001°30'0 0.0
2017-Dec-03 22:58N 43°32' W 001°30'0 0.0
2017-Dec-03 22:28N 43°32' W 001°30'0 0.0
2017-Dec-03 21:58N 43°32' W 001°30'0 0.0
2017-Dec-03 21:28N 43°32' W 001°30'0 0.0
2017-Dec-03 20:58N 43°32' W 001°30'0 0.0
2017-Dec-03 20:28N 43°32' W 001°30'0 0.0
2017-Dec-03 19:58N 43°32' W 001°30'0 0.0
2017-Dec-03 19:28N 43°32' W 001°30'0 0.0
2017-Dec-03 18:58N 43°32' W 001°30'0 0.0
2017-Dec-03 18:28N 43°32' W 001°30'0 0.0
2017-Dec-03 17:58N 43°32' W 001°30'0 0.0
2017-Dec-03 17:28N 43°32' W 001°30'0 0.0
2017-Dec-03 16:58N 43°32' W 001°30'0 0.0
2017-Dec-03 16:28N 43°32' W 001°30'0 0.0
2017-Dec-03 15:58N 43°32' W 001°30'0 0.0
2017-Dec-03 15:28N 43°32' W 001°30'0 0.0
2017-Dec-03 14:58N 43°32' W 001°30'0 0.0
2017-Dec-03 14:28N 43°32' W 001°30'0 0.0
2017-Dec-03 13:58N 43°32' W 001°30'0 0.0
2017-Dec-03 13:28N 43°32' W 001°30'0 0.0
2017-Dec-03 12:58N 43°32' W 001°30'0 0.0
2017-Dec-03 12:28N 43°32' W 001°30'0 0.0
2017-Dec-03 11:58N 43°32' W 001°30'0 0.0
2017-Dec-03 11:28N 43°32' W 001°30'0 0.0
2017-Dec-03 10:58N 43°32' W 001°30'0 0.0
2017-Dec-03 10:25N 43°32' W 001°30'0 0.0
2017-Dec-03 09:59N 43°32' W 001°30'2 4.9
2017-Dec-03 09:30N 43°32' W 001°33'3 5.1
2017-Dec-03 09:00N 43°35' W 001°35'4 7.5
2017-Dec-03 08:30N 43°38' W 001°38'2 4.9
2017-Dec-03 08:00N 43°40' W 001°39'5 9.6
2017-Dec-03 07:30N 43°44' W 001°42'5 9.8
2017-Dec-03 07:00N 43°48' W 001°46'5 9.4
2017-Dec-03 06:30N 43°52' W 001°49'5 9.5
2017-Dec-03 06:00N 43°56' W 001°52'5 9.7
2017-Dec-03 05:30N 44°01' W 001°56'5 9.8
2017-Dec-03 05:00N 44°05' W 001°59'5 9.8
2017-Dec-03 04:30N 44°09' W 002°03'5 9.9
2017-Dec-03 03:59N 44°13' W 002°06'510.0
2017-Dec-03 03:30N 44°18' W 002°10'510.0
2017-Dec-03 02:59N 44°22' W 002°13'5 9.7
2017-Dec-03 02:27N 44°27' W 002°17'21810.1
2017-Dec-02 04:50N 47°34' W 004°57'412.8
2017-Dec-02 04:30N 47°37' W 005°00'713.0
2017-Dec-02 03:59N 47°43' W 005°05'613.0
2017-Dec-02 03:31N 47°48' W 005°10'712.9
2017-Dec-02 02:59N 47°54' W 005°15'612.4
2017-Dec-02 02:30N 47°59' W 005°20'712.0
2017-Dec-02 01:57N 48°05' W 005°25'611.7
2017-Dec-02 01:28N 48°10' W 005°29'511.5
2017-Dec-02 01:01N 48°15' W 005°33'611.3
2017-Dec-02 00:26N 48°20' W 005°38'511.3
2017-Dec-01 23:57N 48°25' W 005°42'  
Track history (hours):
 
Tides and Currents Weather Stations Pressure Air Temp Water Temp Dewpoint Dewpoint Depression Visibility Wind Speed Wind Dir Waves Ship Positions

Capricorn

Last reported at 2017-Dec-11 16:58 UTC. Time now 2017-Dec-12 03:00 UTC.
Position N 59°07' E 009°37'.

Length 118 m; beam 15 m.

Type: Cargo ship. MMSI: 244050844.

Date/timePositionNaut miles runAvg speedWind from/ knotsBaromVisibWave heightAir tempDewpointWater temp
2017-Dec-11 16:58N 59°07' E 009°37'0 0.0
2017-Dec-11 16:28N 59°07' E 009°37'0 0.0
2017-Dec-11 15:58N 59°07' E 009°37'0 0.0
2017-Dec-11 15:28N 59°07' E 009°37'0 0.0
2017-Dec-11 14:58N 59°07' E 009°37'0 0.0
2017-Dec-11 14:28N 59°07' E 009°37'0 0.0
2017-Dec-11 13:58N 59°07' E 009°37'0 0.0
2017-Dec-11 13:28N 59°07' E 009°37'0 0.0
2017-Dec-11 12:58N 59°07' E 009°37'0 0.0
2017-Dec-11 12:28N 59°07' E 009°37'0 0.0
2017-Dec-11 11:58N 59°07' E 009°37'0 0.0
2017-Dec-11 11:28N 59°07' E 009°37'0 0.0
2017-Dec-11 10:58N 59°07' E 009°37'0 0.0
2017-Dec-11 10:28N 59°07' E 009°37'0 0.0
2017-Dec-11 09:58N 59°07' E 009°37'0 0.0
2017-Dec-11 09:28N 59°07' E 009°37'0 0.0
2017-Dec-11 08:58N 59°07' E 009°37'0 0.0
2017-Dec-11 08:28N 59°07' E 009°37'0 0.0
2017-Dec-11 07:58N 59°07' E 009°37'0 0.0
2017-Dec-11 07:28N 59°07' E 009°37'0 0.0
2017-Dec-11 06:58N 59°07' E 009°37'0 0.0
2017-Dec-11 06:28N 59°07' E 009°37'0 0.0
2017-Dec-11 05:58N 59°07' E 009°37'0 0.0
2017-Dec-11 05:28N 59°07' E 009°37'0 0.0
2017-Dec-11 04:58N 59°07' E 009°37'0 0.0
2017-Dec-11 04:28N 59°07' E 009°37'0 0.0
2017-Dec-11 03:58N 59°07' E 009°37'0 0.0
2017-Dec-11 03:28N 59°07' E 009°37'0 0.0
2017-Dec-11 02:58N 59°07' E 009°37'0 0.0
2017-Dec-11 02:28N 59°07' E 009°37'0 0.0
2017-Dec-11 01:58N 59°07' E 009°37'0 0.0
2017-Dec-11 01:28N 59°07' E 009°37'0 0.0
2017-Dec-11 00:58N 59°07' E 009°37'0 0.0
2017-Dec-11 00:28N 59°07' E 009°37'0 0.0
2017-Dec-10 23:55N 59°07' E 009°37'0 0.0
2017-Dec-10 23:28N 59°07' E 009°37'0 0.0
2017-Dec-10 22:58N 59°07' E 009°37'0 0.0
2017-Dec-10 22:28N 59°07' E 009°37'0 0.0
2017-Dec-10 21:58N 59°07' E 009°37'0 0.0
2017-Dec-10 21:28N 59°07' E 009°37'0 0.0
2017-Dec-10 20:58N 59°07' E 009°37'0 0.0
2017-Dec-10 20:28N 59°07' E 009°37'0 0.0
2017-Dec-10 19:58N 59°07' E 009°37'0 0.0
2017-Dec-10 19:28N 59°07' E 009°37'0 0.0
2017-Dec-10 18:58N 59°07' E 009°37'0 0.0
2017-Dec-10 18:28N 59°07' E 009°37'0 0.0
2017-Dec-10 17:58N 59°07' E 009°37'0 0.0
2017-Dec-10 17:30N 59°07' E 009°37'2 3.8
2017-Dec-10 17:00N 59°05' E 009°38'5 9.4
2017-Dec-10 16:30N 59°02' E 009°44'510.7
2017-Dec-10 16:00N 58°57' E 009°48'611.6
2017-Dec-10 15:30N 58°51' E 009°47'611.9
2017-Dec-10 15:00N 58°45' E 009°46'612.4
2017-Dec-10 14:30N 58°39' E 009°45'19312.3
2017-Dec-09 22:49N 55°51' E 006°50'411.5
2017-Dec-09 22:30N 55°48' E 006°47'611.6
2017-Dec-09 21:59N 55°43' E 006°41'511.3
2017-Dec-09 21:30N 55°38' E 006°36'611.3
2017-Dec-09 21:00N 55°33' E 006°31'611.3
2017-Dec-09 20:29N 55°28' E 006°26'511.1
2017-Dec-09 20:00N 55°23' E 006°22'611.4
2017-Dec-09 19:30N 55°18' E 006°17'611.2
2017-Dec-09 18:59N 55°13' E 006°13'611.2
2017-Dec-09 18:29N 55°08' E 006°08'610.9
2017-Dec-09 17:59N 55°04' E 006°03'510.9
2017-Dec-09 17:30N 54°59' E 005°59'510.9
2017-Dec-09 17:00N 54°54' E 005°54'510.7
2017-Dec-09 16:30N 54°50' E 005°49'510.5
2017-Dec-09 15:59N 54°45' E 005°45'510.2
2017-Dec-09 15:30N 54°41' E 005°41'510.0
2017-Dec-09 15:00N 54°36' E 005°37'510.3
2017-Dec-09 14:30N 54°32' E 005°32'510.2
2017-Dec-09 13:59N 54°27' E 005°28'5 9.9
2017-Dec-09 13:29N 54°23' E 005°24'5 9.9
2017-Dec-09 13:00N 54°19' E 005°20'5 9.9
2017-Dec-09 12:29N 54°14' E 005°16'5 9.8
2017-Dec-09 12:00N 54°10' E 005°12'36 9.1
2017-Dec-09 08:03N 53°36' E 004°49'1 8.3
2017-Dec-09 07:58N 53°36' E 004°49'47 8.1
2017-Dec-09 02:08N 52°53' E 004°17'3 7.0
2017-Dec-09 01:39N 52°50' E 004°16'2 6.9
2017-Dec-09 01:19N 52°47' E 004°14'2 5.0
2017-Dec-09 00:58N 52°46' E 004°15'3 5.9
2017-Dec-09 00:28N 52°43' E 004°16'3 5.8
2017-Dec-09 00:00N 52°40' E 004°18'3 6.1
2017-Dec-08 23:30N 52°37' E 004°19'3 5.7
2017-Dec-08 23:00N 52°35' E 004°22'3 5.7
2017-Dec-08 22:30N 52°33' E 004°25'3 5.0
2017-Dec-08 22:00N 52°31' E 004°27'3 5.7
2017-Dec-08 21:31N 52°29' E 004°30'4 7.6
2017-Dec-08 21:00N 52°28' E 004°36'0 0.0
2017-Dec-08 20:30N 52°28' E 004°36'2 4.1
2017-Dec-08 20:00N 52°28' E 004°40'5 9.3
2017-Dec-08 19:31N 52°26' E 004°47'1 2.5
2017-Dec-08 18:57N 52°25' E 004°49'0 0.0
2017-Dec-08 18:27N 52°25' E 004°49'0 0.0
2017-Dec-08 17:57N 52°25' E 004°49'0 0.0
2017-Dec-08 17:27N 52°25' E 004°49'0 0.0
2017-Dec-08 16:51N 52°25' E 004°49'0 0.0
2017-Dec-08 16:27N 52°25' E 004°49'0 0.0
2017-Dec-08 15:57N 52°25' E 004°49'0 0.0
2017-Dec-08 15:27N 52°25' E 004°49'0 0.0
2017-Dec-08 14:57N 52°25' E 004°49'0 0.0
2017-Dec-08 14:27N 52°25' E 004°49'0 0.0
2017-Dec-08 13:57N 52°25' E 004°49'0 0.0
2017-Dec-08 13:27N 52°25' E 004°49'0 0.0
2017-Dec-08 12:57N 52°25' E 004°49'0 0.0
2017-Dec-08 12:21N 52°25' E 004°49'0 0.0
2017-Dec-08 11:57N 52°25' E 004°49'0 0.0
2017-Dec-08 11:27N 52°25' E 004°49'0 0.0
2017-Dec-08 10:57N 52°25' E 004°49'0 0.0
2017-Dec-08 10:27N 52°25' E 004°49'0 0.0
2017-Dec-08 09:57N 52°25' E 004°49'0 0.0
2017-Dec-08 09:27N 52°25' E 004°49'0 0.0
2017-Dec-08 08:57N 52°25' E 004°49'0 0.0
2017-Dec-08 08:27N 52°25' E 004°49'0 0.0
2017-Dec-08 07:57N 52°25' E 004°49'0 0.0
2017-Dec-08 07:27N 52°25' E 004°49'0 0.0
2017-Dec-08 06:57N 52°25' E 004°49'0 0.0
2017-Dec-08 06:27N 52°25' E 004°49'0 0.0
2017-Dec-08 05:51N 52°25' E 004°49'0 0.0
2017-Dec-08 05:21N 52°25' E 004°49'0 0.0
2017-Dec-08 04:57N 52°25' E 004°49'0 0.0
2017-Dec-08 04:27N 52°25' E 004°49'0 0.0
2017-Dec-08 03:57N 52°25' E 004°49'0 0.0
2017-Dec-08 03:27N 52°25' E 004°49'0 0.0
2017-Dec-08 02:57N 52°25' E 004°49'0 0.0
2017-Dec-08 02:27N 52°25' E 004°49'0 0.0
2017-Dec-08 01:57N 52°25' E 004°49'0 0.0
2017-Dec-08 01:27N 52°25' E 004°49'0 0.0
2017-Dec-08 00:57N 52°25' E 004°49'0 0.0
2017-Dec-08 00:27N 52°25' E 004°49'0 0.0
2017-Dec-07 23:57N 52°25' E 004°49'0 0.0
2017-Dec-07 23:27N 52°25' E 004°49'0 0.0
2017-Dec-07 22:57N 52°25' E 004°49'0 0.0
2017-Dec-07 22:27N 52°25' E 004°49'0 0.0
2017-Dec-07 21:57N 52°25' E 004°49'0 0.0
2017-Dec-07 21:27N 52°25' E 004°49'0 0.0
2017-Dec-07 20:57N 52°25' E 004°49'0 0.0
2017-Dec-07 20:27N 52°25' E 004°49'0 0.0
2017-Dec-07 19:57N 52°25' E 004°49'0 0.0
2017-Dec-07 19:27N 52°25' E 004°49'0 0.0
2017-Dec-07 18:51N 52°25' E 004°49'0 0.0
2017-Dec-07 18:15N 52°25' E 004°49'0 0.0
2017-Dec-07 17:45N 52°25' E 004°49'0 0.0
2017-Dec-07 17:27N 52°25' E 004°49'0 0.0
2017-Dec-07 16:57N 52°25' E 004°49'0 0.0
2017-Dec-07 16:27N 52°25' E 004°49'0 0.0
2017-Dec-07 15:51N 52°25' E 004°49'0 0.0
2017-Dec-07 15:27N 52°25' E 004°49'0 0.0
2017-Dec-07 14:57N 52°25' E 004°49'0 0.0
2017-Dec-07 14:27N 52°25' E 004°49'0 0.0
2017-Dec-07 13:57N 52°25' E 004°49'0 0.0
2017-Dec-07 13:27N 52°25' E 004°49'0 0.0
2017-Dec-07 12:57N 52°25' E 004°49'0 0.0
2017-Dec-07 12:27N 52°25' E 004°49'0 0.0
2017-Dec-07 11:58N 52°25' E 004°49'1 1.7
2017-Dec-07 11:30N 52°25' E 004°48'4 8.9
2017-Dec-07 11:00N 52°27' E 004°41'3 6.2
2017-Dec-07 10:31N 52°28' E 004°36'2 3.3
2017-Dec-07 10:01N 52°28' E 004°33'510.4
2017-Dec-07 09:30N 52°28' E 004°25'510.7
2017-Dec-07 09:00N 52°29' E 004°16'510.0
2017-Dec-07 08:30N 52°29' E 004°08'611.0
2017-Dec-07 08:00N 52°27' E 003°59'7112.4
2017-Dec-07 02:16N 51°41' E 002°32'513.0
2017-Dec-07 01:51N 51°36' E 002°26'612.7
2017-Dec-07 01:24N 51°32' E 002°20'512.2
2017-Dec-07 00:59N 51°28' E 002°16'612.1
2017-Dec-07 00:30N 51°23' E 002°11'611.4
2017-Dec-07 00:00N 51°18' E 002°07'510.4
2017-Dec-06 23:30N 51°14' E 002°02'5 9.9
2017-Dec-06 23:00N 51°11' E 001°56'5 9.4
2017-Dec-06 22:30N 51°08' E 001°50'5 9.2
2017-Dec-06 22:00N 51°05' E 001°44'4 8.8
2017-Dec-06 21:30N 51°02' E 001°39'4 8.7
2017-Dec-06 21:00N 50°59' E 001°35'  
2017-Dec-04 10:22N 43°32' W 001°30'0 0.0
2017-Dec-04 09:58N 43°32' W 001°30'0 0.0
2017-Dec-04 09:28N 43°32' W 001°30'0 0.0
2017-Dec-04 08:58N 43°32' W 001°30'0 0.0
2017-Dec-04 08:28N 43°32' W 001°30'0 0.0
2017-Dec-04 07:58N 43°32' W 001°30'0 0.0
2017-Dec-04 07:28N 43°32' W 001°30'0 0.0
2017-Dec-04 06:58N 43°32' W 001°30'0 0.0
2017-Dec-04 06:28N 43°32' W 001°30'0 0.0
2017-Dec-04 05:58N 43°32' W 001°30'0 0.0
2017-Dec-04 05:28N 43°32' W 001°30'0 0.0
2017-Dec-04 04:58N 43°32' W 001°30'0 0.0
2017-Dec-04 04:28N 43°32' W 001°30'0 0.0
2017-Dec-04 03:58N 43°32' W 001°30'0 0.0
2017-Dec-04 03:28N 43°32' W 001°30'0 0.0
2017-Dec-04 02:58N 43°32' W 001°30'0 0.0
2017-Dec-04 02:28N 43°32' W 001°30'0 0.0
2017-Dec-04 01:58N 43°32' W 001°30'0 0.0
2017-Dec-04 01:28N 43°32' W 001°30'0 0.0
2017-Dec-04 00:58N 43°32' W 001°30'0 0.0
2017-Dec-04 00:28N 43°32' W 001°30'0 0.0
2017-Dec-03 23:58N 43°32' W 001°30'0 0.0
2017-Dec-03 23:28N 43°32' W 001°30'0 0.0
2017-Dec-03 22:58N 43°32' W 001°30'0 0.0
2017-Dec-03 22:28N 43°32' W 001°30'0 0.0
2017-Dec-03 21:58N 43°32' W 001°30'0 0.0
2017-Dec-03 21:28N 43°32' W 001°30'0 0.0
2017-Dec-03 20:58N 43°32' W 001°30'0 0.0
2017-Dec-03 20:28N 43°32' W 001°30'0 0.0
2017-Dec-03 19:58N 43°32' W 001°30'0 0.0
2017-Dec-03 19:28N 43°32' W 001°30'0 0.0
2017-Dec-03 18:58N 43°32' W 001°30'0 0.0
2017-Dec-03 18:28N 43°32' W 001°30'0 0.0
2017-Dec-03 17:58N 43°32' W 001°30'0 0.0
2017-Dec-03 17:28N 43°32' W 001°30'0 0.0
2017-Dec-03 16:58N 43°32' W 001°30'0 0.0
2017-Dec-03 16:28N 43°32' W 001°30'0 0.0
2017-Dec-03 15:58N 43°32' W 001°30'0 0.0
2017-Dec-03 15:28N 43°32' W 001°30'0 0.0
2017-Dec-03 14:58N 43°32' W 001°30'0 0.0
2017-Dec-03 14:28N 43°32' W 001°30'0 0.0
2017-Dec-03 13:58N 43°32' W 001°30'0 0.0
2017-Dec-03 13:28N 43°32' W 001°30'0 0.0
2017-Dec-03 12:58N 43°32' W 001°30'0 0.0
2017-Dec-03 12:28N 43°32' W 001°30'0 0.0
2017-Dec-03 11:58N 43°32' W 001°30'0 0.0
2017-Dec-03 11:28N 43°32' W 001°30'0 0.0
2017-Dec-03 10:58N 43°32' W 001°30'0 0.0
2017-Dec-03 10:25N 43°32' W 001°30'0 0.0
2017-Dec-03 09:59N 43°32' W 001°30'2 4.9
2017-Dec-03 09:30N 43°32' W 001°33'3 5.1
2017-Dec-03 09:00N 43°35' W 001°35'4 7.5
2017-Dec-03 08:30N 43°38' W 001°38'2 4.9
2017-Dec-03 08:00N 43°40' W 001°39'5 9.6
2017-Dec-03 07:30N 43°44' W 001°42'5 9.8
2017-Dec-03 07:00N 43°48' W 001°46'5 9.4
2017-Dec-03 06:30N 43°52' W 001°49'5 9.5
2017-Dec-03 06:00N 43°56' W 001°52'5 9.7
2017-Dec-03 05:30N 44°01' W 001°56'5 9.8
2017-Dec-03 05:00N 44°05' W 001°59'5 9.8
2017-Dec-03 04:30N 44°09' W 002°03'5 9.9
2017-Dec-03 03:59N 44°13' W 002°06'510.0
2017-Dec-03 03:30N 44°18' W 002°10'510.0
2017-Dec-03 02:59N 44°22' W 002°13'5 9.7
2017-Dec-03 02:27N 44°27' W 002°17'21810.1
2017-Dec-02 04:50N 47°34' W 004°57'412.8
2017-Dec-02 04:30N 47°37' W 005°00'713.0
2017-Dec-02 03:59N 47°43' W 005°05'613.0
2017-Dec-02 03:31N 47°48' W 005°10'712.9
2017-Dec-02 02:59N 47°54' W 005°15'612.4
2017-Dec-02 02:30N 47°59' W 005°20'712.0
2017-Dec-02 01:57N 48°05' W 005°25'611.7
2017-Dec-02 01:28N 48°10' W 005°29'511.5
2017-Dec-02 01:01N 48°15' W 005°33'611.3
2017-Dec-02 00:26N 48°20' W 005°38'511.3
2017-Dec-01 23:57N 48°25' W 005°42'  

Dump ship's entire track history